Terminal Aerodrome Forecast
Issued by NWS Boise, ID

Home | Current Version | Previous Version | Text Only | Print | Product List | Glossary On
Versions: 1 2 3 4 5 6 7 8 9 10 11 12 13
000
FTUS45 KBOI 261726
TAFBOI
TAF
KBOI 261726Z 2618/2718 30010KT P6SM BKN070
     FM262100 31010G15KT P6SM VCSH SCT030 BKN070
     FM270100 VRB06KT P6SM FEW100=

USA.gov is the U.S. government's official web portal to all federal, state and local government web resources and services.